Bookmark and Share
Track history (hours):
 

Drifting buoy 42514

Last reported at 2012-Nov-11 10:39 UTC. Time now 2014-Apr-20 03:23 UTC.
Position N 27°56' W 088°00'.
Warning: this ship's position is years out of date!

NotesDate/timePositionNaut miles runAvg speedWind from/ knotsBaromVisibWave heightAir tempDewpointWater temp
2012-Nov-11 10:39N 27°56' W 088°00'0 0.0
2012-Nov-11 02:25N 27°56' W 088°00'0 0.0
2012-Nov-10 22:34N 27°56' W 088°00'0 0.0
2012-Nov-10 22:16N 27°56' W 088°00'0 0.0
2012-Nov-10 20:34N 27°56' W 088°00'0 0.0
2012-Nov-10 19:46N 27°56' W 088°00'0 0.0
2012-Nov-10 18:10N 27°56' W 088°00'0 0.0
2012-Nov-10 16:57N 27°56' W 088°00'0 0.0
2012-Nov-10 15:18N 27°56' W 088°00'4 3.9
2012-Nov-10 14:21N 27°55' W 087°56'0 0.0
2012-Nov-10 12:12N 27°55' W 087°56'0 0.0
2012-Nov-10 11:23N 27°55' W 087°56'0 0.0
2012-Nov-10 09:41N 27°55' W 087°56'0 0.0
2012-Nov-10 09:17N 27°55' W 087°56'0 0.0
2012-Nov-10 06:46N 27°55' W 087°56'0 0.0
2012-Nov-10 02:55N 27°55' W 087°56'1 6.1
2012-Nov-10 02:47N 27°55' W 087°55'0 0.0
2012-Nov-10 01:54N 27°55' W 087°55'0 0.0
2012-Nov-10 01:31N 27°55' W 087°55'112.2
2012-Nov-10 01:26N 27°55' W 087°54'0 0.0
2012-Nov-09 23:48N 27°55' W 087°54'1 1.8
2012-Nov-09 23:03N 27°55' W 087°53'0 0.1
2012-Nov-09 20:50N 27°55' W 087°53'1 1.0
2012-Nov-09 20:04N 27°54' W 087°52'0 0.0
2012-Nov-09 19:06N 27°54' W 087°52'1 1.1
2012-Nov-09 18:23N 27°54' W 087°51'1 0.3
2012-Nov-09 16:11N 27°54' W 087°50'1 1.3
2012-Nov-09 15:35N 27°54' W 087°51'1 0.8
2012-Nov-09 14:39N 27°54' W 087°50'1 6.9
2012-Nov-09 14:28N 27°54' W 087°49'0 0.0
2012-Nov-09 14:06N 27°54' W 087°49'0 0.0
2012-Nov-09 13:57N 27°54' W 087°49'0 0.0
2012-Nov-09 12:37N 27°54' W 087°49'1 0.8
2012-Nov-09 11:02N 27°53' W 087°47'0 0.0
2012-Nov-09 10:06N 27°53' W 087°47'1 6.7
2012-Nov-09 10:01N 27°53' W 087°47'0 0.0
2012-Nov-09 09:26N 27°53' W 087°47'1 4.0
2012-Nov-09 09:18N 27°53' W 087°46'1 0.9
2012-Nov-09 08:40N 27°52' W 087°46'0 0.1
2012-Nov-09 07:45N 27°52' W 087°46'0 7.4
2012-Nov-09 07:41N 27°52' W 087°45'0 0.1
2012-Nov-09 07:00N 27°52' W 087°45'2 1.0
2012-Nov-09 04:51N 27°51' W 087°43'0 0.0
2012-Nov-09 03:16N 27°51' W 087°43'1 0.5
2012-Nov-09 02:10N 27°51' W 087°43'3 9.7
2012-Nov-09 01:52N 27°50' W 087°40'0 0.0
2012-Nov-09 01:34N 27°50' W 087°40'0 0.0
2012-Nov-08 23:21N 27°50' W 087°40'1 0.2
2012-Nov-08 21:00N 27°50' W 087°40'1 0.8
2012-Nov-08 20:12N 27°50' W 087°39'0 0.0
2012-Nov-08 19:17N 27°50' W 087°39'1 1.1
2012-Nov-08 18:34N 27°49' W 087°39'2 0.9
2012-Nov-08 15:59N 27°48' W 087°37'0 0.0
2012-Nov-08 14:46N 27°48' W 087°37'126.5
2012-Nov-08 14:43N 27°47' W 087°35'0 0.0
2012-Nov-08 14:16N 27°47' W 087°35'2 1.5
2012-Nov-08 13:04N 27°46' W 087°34'0 0.0
2012-Nov-08 12:06N 27°46' W 087°34'0 0.0
2012-Nov-08 10:31N 27°46' W 087°34'0 0.5
2012-Nov-08 09:34N 27°46' W 087°33'1 1.4
2012-Nov-08 08:47N 27°45' W 087°32'0 0.1
2012-Nov-08 07:57N 27°45' W 087°32'1 8.0
2012-Nov-08 07:51N 27°45' W 087°31'0 0.0
2012-Nov-08 07:16N 27°45' W 087°31'316.3
2012-Nov-08 07:06N 27°44' W 087°28'0 0.0
2012-Nov-08 03:37N 27°44' W 087°28'437.4
2012-Nov-08 03:30N 27°43' W 087°24'0 0.0
2012-Nov-08 02:21N 27°43' W 087°24'0 0.0
2012-Nov-08 01:55N 27°43' W 087°24'0 0.0
2012-Nov-08 00:34N 27°43' W 087°24'0 0.0
2012-Nov-07 23:49N 27°43' W 087°24'0 0.0
2012-Nov-07 22:08N 27°43' W 087°24'0 0.0
2012-Nov-07 21:11N 27°43' W 087°24'1 1.1
2012-Nov-07 20:24N 27°43' W 087°23'0 0.0
2012-Nov-07 19:24N 27°43' W 087°23'1 0.5
2012-Nov-07 16:19N 27°42' W 087°21'2 1.2
2012-Nov-07 14:56N 27°41' W 087°20'0 0.0
2012-Nov-07 14:38N 27°41' W 087°20'0 0.0
2012-Nov-07 13:20N 27°41' W 087°20'1 7.2
2012-Nov-07 13:15N 27°41' W 087°20'0 0.0
2012-Nov-07 11:43N 27°41' W 087°20'0 0.0
2012-Nov-07 10:57N 27°41' W 087°20'2 1.1
2012-Nov-07 09:06N 27°40' W 087°18'0 2.7
2012-Nov-07 09:00N 27°40' W 087°18'2 2.0
2012-Nov-07 08:10N 27°39' W 087°17'0 0.0
2012-Nov-07 07:24N 27°39' W 087°17'319.0
2012-Nov-07 07:16N 27°38' W 087°14'0 0.0
2012-Nov-07 03:56N 27°38' W 087°14'1 6.0
2012-Nov-07 03:48N 27°37' W 087°14'0 0.2
2012-Nov-07 02:28N 27°37' W 087°13'0 0.0
2012-Nov-07 02:15N 27°37' W 087°13'462.6
2012-Nov-07 02:11N 27°37' W 087°09'0 0.0
2012-Nov-06 22:33N 27°37' W 087°09'0 0.0
2012-Nov-06 21:15N 27°37' W 087°09'0 0.0
2012-Nov-06 20:55N 27°37' W 087°09'0 0.0
2012-Nov-06 20:35N 27°37' W 087°09'0 0.0
2012-Nov-06 19:42N 27°37' W 087°09'1 3.7
2012-Nov-06 19:33N 27°36' W 087°08'0 0.0
2012-Nov-06 18:56N 27°36' W 087°08'2 0.6
2012-Nov-06 15:03N 27°36' W 087°06'1 0.3
2012-Nov-06 12:04N 27°35' W 087°05'0 0.0
2012-Nov-06 11:21N 27°35' W 087°05'0 0.0
2012-Nov-06 09:58N 27°35' W 087°05'0 0.5
2012-Nov-06 09:13N 27°35' W 087°05'119.1
2012-Nov-06 09:10N 27°35' W 087°04'0 0.1
2012-Nov-06 07:35N 27°35' W 087°04'220.4
2012-Nov-06 07:28N 27°33' W 087°02'0 0.0
2012-Nov-06 05:50N 27°33' W 087°02'0 0.0
2012-Nov-06 04:16N 27°33' W 087°02'1 0.7
2012-Nov-06 02:44N 27°33' W 087°01'0 0.3
2012-Nov-06 02:34N 27°33' W 087°01'1 0.8
2012-Nov-06 01:02N 27°32' W 086°60'2 1.1
2012-Nov-05 23:02N 27°32' W 086°58'0 0.0
2012-Nov-05 21:31N 27°32' W 086°58'0 1.0
2012-Nov-05 21:23N 27°32' W 086°58'1 1.3
2012-Nov-05 20:44N 27°32' W 086°57'0 0.1
2012-Nov-05 19:48N 27°32' W 086°57'2 2.6
2012-Nov-05 19:08N 27°31' W 086°55'0 0.1
2012-Nov-05 15:22N 27°31' W 086°54'0 1.8
2012-Nov-05 15:13N 27°31' W 086°55'3 1.7
2012-Nov-05 13:43N 27°30' W 086°53'0 0.0
2012-Nov-05 12:29N 27°30' W 086°53'0 0.0
2012-Nov-05 11:43N 27°30' W 086°53'0 0.1
2012-Nov-05 10:06N 27°30' W 086°53'1 4.9
2012-Nov-05 09:59N 27°29' W 086°52'0 0.1
2012-Nov-05 09:23N 27°29' W 086°52'1 8.0
2012-Nov-05 09:19N 27°29' W 086°52'0 0.0
2012-Nov-05 08:30N 27°29' W 086°52'0 1.1
2012-Nov-05 08:27N 27°29' W 086°52'1 0.7
2012-Nov-05 07:44N 27°28' W 086°51'333.6
2012-Nov-05 07:39N 27°27' W 086°49'0 0.0
2012-Nov-05 06:01N 27°27' W 086°49'0 0.0
2012-Nov-05 04:37N 27°27' W 086°49'2 0.9
2012-Nov-05 02:59N 27°26' W 086°47'0 3.9
2012-Nov-05 02:57N 27°26' W 086°47'1 0.8
2012-Nov-05 01:49N 27°26' W 086°46'1 1.0
2012-Nov-05 01:17N 27°26' W 086°46'2 0.7
2012-Nov-04 21:46N 27°25' W 086°43'0 0.0
2012-Nov-04 21:44N 27°25' W 086°43'113.6
2012-Nov-04 21:40N 27°25' W 086°42'0 0.0
2012-Nov-04 19:58N 27°25' W 086°42'0 0.3
2012-Nov-04 19:18N 27°25' W 086°42'2 0.9
2012-Nov-04 17:35N 27°25' W 086°40'1 2.8
2012-Nov-04 17:19N 27°25' W 086°41'1 0.7
2012-Nov-04 15:35N 27°24' W 086°40'0 0.0
2012-Nov-04 13:59N 27°24' W 086°40'210.2
2012-Nov-04 13:50N 27°23' W 086°39'0 0.0
2012-Nov-04 10:31N 27°23' W 086°39'0 0.4
2012-Nov-04 10:19N 27°23' W 086°39'1 1.4
2012-Nov-04 09:32N 27°22' W 086°38'2 2.0
2012-Nov-04 08:34N 27°21' W 086°36'0 0.0
2012-Nov-04 07:54N 27°21' W 086°36'2 1.1
2012-Nov-04 06:11N 27°20' W 086°35'0 0.0
2012-Nov-04 03:19N 27°20' W 086°35'1 8.0
2012-Nov-04 03:10N 27°20' W 086°33'0 0.0
2012-Nov-04 01:39N 27°20' W 086°33'0 0.0
2012-Nov-04 01:28N 27°20' W 086°33'0 3.2
2012-Nov-04 01:27N 27°20' W 086°33'2 1.4
2012-Nov-03 23:47N 27°19' W 086°31'1 0.5
2012-Nov-03 22:05N 27°19' W 086°30'0 0.0
2012-Nov-03 21:50N 27°19' W 086°30'0 0.0
2012-Nov-03 20:30N 27°19' W 086°30'1 2.4
2012-Nov-03 20:15N 27°19' W 086°29'0 0.1
2012-Nov-03 19:29N 27°19' W 086°29'1 0.7
2012-Nov-03 17:47N 27°19' W 086°28'0 0.0
2012-Nov-03 16:04N 27°19' W 086°28'0 0.6
2012-Nov-03 15:50N 27°19' W 086°28'0 2.6
2012-Nov-03 15:45N 27°19' W 086°28'0 0.0
2012-Nov-03 14:22N 27°19' W 086°28'1 2.0
2012-Nov-03 14:04N 27°19' W 086°27'0 0.0
2012-Nov-03 13:17N 27°19' W 086°27'0 0.3
2012-Nov-03 12:29N 27°19' W 086°27'0 0.0
2012-Nov-03 11:33N 27°19' W 086°27'0 0.0
2012-Nov-03 10:54N 27°19' W 086°27'1 0.5
2012-Nov-03 09:12N 27°18' W 086°26'0 1.2
2012-Nov-03 09:08N 27°18' W 086°26'1 1.3
2012-Nov-03 08:44N 27°18' W 086°26'1 0.8
2012-Nov-03 08:02N 27°18' W 086°25'1 5.1
2012-Nov-03 07:56N 27°17' W 086°25'0 0.1
2012-Nov-03 06:24N 27°17' W 086°25'2 0.7
2012-Nov-03 03:40N 27°16' W 086°23'0 0.5
2012-Nov-03 03:34N 27°16' W 086°23'1 4.1
2012-Nov-03 03:18N 27°16' W 086°22'0 0.2
2012-Nov-03 02:00N 27°15' W 086°22'3 8.1
2012-Nov-03 01:41N 27°15' W 086°19'1 0.2
2012-Nov-02 20:53N 27°15' W 086°18'0 0.0
2012-Nov-02 20:27N 27°15' W 086°18'1 0.8
2012-Nov-02 19:39N 27°16' W 086°17'1 0.7
2012-Nov-02 17:57N 27°16' W 086°16'0 0.0
2012-Nov-02 16:25N 27°16' W 086°16'0 1.6
2012-Nov-02 16:22N 27°16' W 086°16'0 0.2
2012-Nov-02 14:44N 27°16' W 086°16'2 3.6
2012-Nov-02 14:19N 27°16' W 086°14'0 0.0
2012-Nov-02 11:15N 27°16' W 086°14'0 0.0
2012-Nov-02 10:38N 27°16' W 086°14'0 0.0
2012-Nov-02 09:38N 27°16' W 086°14'0 0.1
2012-Nov-02 09:03N 27°16' W 086°14'0 1.3
2012-Nov-02 08:55N 27°16' W 086°14'0 0.2
2012-Nov-02 08:14N 27°16' W 086°14'3 0.7
2012-Nov-02 03:34N 27°13' W 086°12'6 3.7
2012-Nov-02 01:54N 27°14' W 086°05'0 0.0
2012-Nov-01 23:36N 27°14' W 086°05'0 0.0
2012-Nov-01 21:11N 27°14' W 086°05'0 0.0
2012-Nov-01 20:31N 27°14' W 086°05'0 0.0
2012-Nov-01 19:49N 27°14' W 086°05'0 0.0
2012-Nov-01 18:50N 27°14' W 086°05'0 0.0
2012-Nov-01 18:03N 27°14' W 086°05'0 0.0
2012-Nov-01 16:38N 27°14' W 086°05'1 0.8
2012-Nov-01 15:03N 27°15' W 086°04'  

Dump ship's entire track history

sailing weather and tide predictions

Buoy 42514